createdAt,value
2019-03-26T00:00:36.361Z,27.62
2019-03-26T00:03:13.056Z,27.02
2019-03-26T00:05:47.367Z,28.30
2019-03-26T00:08:19.031Z,24.72
2019-03-26T00:10:52.022Z,16.35
2019-03-26T00:13:25.294Z,25.10
2019-03-26T00:15:56.976Z,17.48
2019-03-26T00:18:32.010Z,20.30
2019-03-26T00:21:03.654Z,28.20
2019-03-26T00:23:35.219Z,18.02
2019-03-26T00:26:09.940Z,21.27
2019-03-26T00:28:41.708Z,22.32
2019-03-26T00:31:13.376Z,12.73
2019-03-26T00:33:45.122Z,21.35
2019-03-26T00:36:16.985Z,26.27
2019-03-26T00:38:48.881Z,25.70
2019-03-26T00:41:20.721Z,16.40
2019-03-26T00:43:56.573Z,19.00
2019-03-26T00:46:28.130Z,17.00
2019-03-26T00:48:59.896Z,13.68
2019-03-26T00:51:31.528Z,18.92
2019-03-26T00:54:03.218Z,14.15
2019-03-26T00:56:35.054Z,21.87
2019-03-26T00:59:06.604Z,20.37
2019-03-26T01:01:38.184Z,20.43
2019-03-26T01:04:09.712Z,20.60
2019-03-26T01:06:41.494Z,19.55
2019-03-26T01:09:13.454Z,12.85
2019-03-26T01:11:45.306Z,15.23
2019-03-26T01:14:16.959Z,18.57
2019-03-26T01:16:48.644Z,15.40
2019-03-26T01:19:20.282Z,25.02
2019-03-26T01:21:51.940Z,18.55
2019-03-26T01:24:23.519Z,14.38
2019-03-26T01:26:55.485Z,16.48
2019-03-26T01:29:26.985Z,18.60
2019-03-26T01:31:58.803Z,22.62
2019-03-26T01:34:45.254Z,17.30
2019-03-26T01:37:06.717Z,15.68
2019-03-26T01:39:38.582Z,19.98
2019-03-26T01:42:10.334Z,16.32
2019-03-26T01:44:41.926Z,16.10
2019-03-26T01:47:13.884Z,19.10
2019-03-26T01:49:45.393Z,17.48
2019-03-26T01:52:17.066Z,17.55
2019-03-26T01:54:48.815Z,18.12
2019-03-26T01:57:20.589Z,19.27
2019-03-26T01:59:52.142Z,18.07
2019-03-26T02:02:23.981Z,15.40
2019-03-26T02:05:00.245Z,18.98
2019-03-26T02:07:29.977Z,20.60
2019-03-26T02:10:01.819Z,17.85
2019-03-26T02:12:33.375Z,16.55
2019-03-26T02:15:07.164Z,19.27
2019-03-26T02:17:38.863Z,15.48
2019-03-26T02:20:10.525Z,16.50
2019-03-26T02:22:42.056Z,20.15
2019-03-26T02:25:13.842Z,21.07
2019-03-26T02:27:45.681Z,17.17
2019-03-26T02:30:17.357Z,20.23
2019-03-26T02:32:49.223Z,16.80
2019-03-26T02:35:20.873Z,18.82
2019-03-26T02:37:52.638Z,18.40
2019-03-26T02:40:24.400Z,18.77
2019-03-26T02:42:57.297Z,17.60
2019-03-26T02:45:28.746Z,18.60
2019-03-26T02:48:00.396Z,17.35
2019-03-26T02:50:32.254Z,19.25
2019-03-26T02:53:03.996Z,19.42
2019-03-26T02:55:35.875Z,15.48
2019-03-26T02:58:08.578Z,20.50
2019-03-26T03:00:39.991Z,19.87
2019-03-26T03:03:11.855Z,19.25
2019-03-26T03:05:43.639Z,20.92
2019-03-26T03:08:15.299Z,15.05
2019-03-26T03:10:46.952Z,19.87
2019-03-26T03:13:19.941Z,19.05
2019-03-26T03:15:51.678Z,18.50
2019-03-26T03:18:23.456Z,23.20
2019-03-26T03:20:54.894Z,17.70
2019-03-26T03:23:26.667Z,16.42
2019-03-26T03:25:58.325Z,18.50
2019-03-26T03:28:29.890Z,18.00
2019-03-26T03:31:01.334Z,18.82
2019-03-26T03:33:33.097Z,17.80
2019-03-26T03:36:04.665Z,17.92
2019-03-26T03:38:36.393Z,16.95
2019-03-26T03:41:08.165Z,17.80
2019-03-26T03:43:39.827Z,20.08
2019-03-26T03:46:11.689Z,16.50
2019-03-26T03:48:43.347Z,19.40
2019-03-26T03:51:15.193Z,21.77
2019-03-26T03:53:46.843Z,18.67
2019-03-26T03:56:18.540Z,18.20
2019-03-26T03:58:50.384Z,22.45
2019-03-26T04:01:22.038Z,21.48
2019-03-26T04:03:53.600Z,20.37
2019-03-26T04:06:25.444Z,22.42
2019-03-26T04:08:57.201Z,26.62
2019-03-26T04:11:28.758Z,19.17
2019-03-26T04:14:00.753Z,20.43
2019-03-26T04:16:32.403Z,17.70
2019-03-26T04:19:04.064Z,16.85
2019-03-26T04:21:35.909Z,22.77
2019-03-26T04:24:07.558Z,17.60
2019-03-26T04:26:39.543Z,17.02
2019-03-26T04:29:11.309Z,21.95
2019-03-26T04:31:42.757Z,17.98
2019-03-26T04:34:14.607Z,14.73
2019-03-26T04:36:46.063Z,22.22
2019-03-26T04:39:17.630Z,24.40
2019-03-26T04:41:49.263Z,16.65
2019-03-26T04:44:20.906Z,18.40
2019-03-26T04:46:52.697Z,19.50
2019-03-26T04:49:24.451Z,20.62
2019-03-26T04:51:56.300Z,20.02
2019-03-26T04:54:28.082Z,21.10
2019-03-26T04:56:59.674Z,16.95
2019-03-26T04:59:31.503Z,22.25
2019-03-26T05:02:03.290Z,25.43
2019-03-26T05:04:35.224Z,17.10
2019-03-26T05:07:06.861Z,19.67
2019-03-26T05:09:38.429Z,22.98
2019-03-26T05:12:10.129Z,22.22
2019-03-26T05:14:42.032Z,19.25
2019-03-26T05:17:13.794Z,20.35
2019-03-26T05:19:45.573Z,21.27
2019-03-26T05:22:24.202Z,24.40
2019-03-26T05:24:50.633Z,25.02
2019-03-26T05:27:23.523Z,19.60
2019-03-26T05:29:55.495Z,20.82
2019-03-26T05:32:26.930Z,20.65
2019-03-26T05:34:58.693Z,20.08
2019-03-26T05:37:30.378Z,22.95
2019-03-26T05:40:02.004Z,20.57
2019-03-26T05:42:33.747Z,21.77
2019-03-26T05:45:07.763Z,19.65
2019-03-26T05:47:39.223Z,16.05
2019-03-26T05:50:10.899Z,15.72
2019-03-26T05:52:42.659Z,19.65
2019-03-26T05:55:14.099Z,17.60
2019-03-26T05:57:45.656Z,19.00
2019-03-26T06:00:20.092Z,18.70
2019-03-26T06:05:22.879Z,20.25
2019-03-26T06:07:54.545Z,20.15
2019-03-26T06:10:26.197Z,16.62
2019-03-26T06:12:57.791Z,16.15
2019-03-26T06:15:29.308Z,23.38
2019-03-26T06:18:01.264Z,17.02
2019-03-26T06:20:32.911Z,16.70
2019-03-26T06:23:04.792Z,16.23
2019-03-26T06:25:36.560Z,19.73
2019-03-26T06:28:08.313Z,20.45
2019-03-26T06:30:39.973Z,21.27
2019-03-26T06:33:11.840Z,17.00
2019-03-26T06:35:43.580Z,19.48
2019-03-26T06:38:15.545Z,23.12
2019-03-26T06:40:47.204Z,19.67
2019-03-26T06:43:18.770Z,22.22
2019-03-26T06:45:50.619Z,20.45
2019-03-26T06:48:22.397Z,17.00
2019-03-26T06:50:54.470Z,20.08
2019-03-26T06:53:26.384Z,23.73
2019-03-26T06:55:57.984Z,23.18
2019-03-26T06:58:29.539Z,27.00
2019-03-26T07:01:01.504Z,27.27
2019-03-26T07:03:33.363Z,23.92
2019-03-26T07:06:04.799Z,28.85
2019-03-26T07:08:36.452Z,30.97
2019-03-26T07:11:08.325Z,31.65
2019-03-26T07:13:40.030Z,29.25
2019-03-26T07:16:11.550Z,26.48
2019-03-26T07:18:43.183Z,24.70
2019-03-26T07:21:15.067Z,31.25
2019-03-26T07:23:46.687Z,30.27
2019-03-26T07:26:18.575Z,31.17
2019-03-26T07:28:50.131Z,25.80
2019-03-26T07:31:21.807Z,26.70
2019-03-26T07:33:53.654Z,31.42
2019-03-26T07:36:25.529Z,27.22
2019-03-26T07:38:57.369Z,28.32
2019-03-26T07:41:29.141Z,26.73
2019-03-26T07:44:00.915Z,33.70
2019-03-26T07:46:32.671Z,29.18
2019-03-26T07:49:04.516Z,26.95
2019-03-26T07:51:36.518Z,30.57
2019-03-26T07:54:08.239Z,32.25
2019-03-26T07:56:41.368Z,37.95
2019-03-26T07:59:13.004Z,28.52
2019-03-26T08:01:44.770Z,28.62
2019-03-26T08:04:16.411Z,30.60
2019-03-26T08:06:48.499Z,30.85
2019-03-26T08:09:20.252Z,27.10
2019-03-26T08:11:51.795Z,28.38
2019-03-26T08:14:23.532Z,29.67
2019-03-26T08:16:55.038Z,26.45
2019-03-26T08:19:26.666Z,28.75
2019-03-26T08:21:58.522Z,28.30
2019-03-26T08:24:30.192Z,29.60
2019-03-26T08:27:01.957Z,30.25
2019-03-26T08:29:35.540Z,32.03
2019-03-26T08:32:07.217Z,28.55
2019-03-26T08:34:38.877Z,33.63
2019-03-26T08:37:10.708Z,32.73
2019-03-26T08:39:42.394Z,34.48
2019-03-26T08:42:14.041Z,35.83
2019-03-26T08:44:45.917Z,34.48
2019-03-26T08:47:17.879Z,41.28
2019-03-26T08:49:49.436Z,36.33
2019-03-26T08:52:21.292Z,34.10
2019-03-26T08:54:52.854Z,35.13
2019-03-26T08:57:24.492Z,36.80
2019-03-26T08:59:57.396Z,34.67
2019-03-26T09:02:29.052Z,32.73
2019-03-26T09:05:00.497Z,38.13
2019-03-26T09:07:32.367Z,34.13
2019-03-26T09:10:04.331Z,34.55
2019-03-26T09:12:35.798Z,33.78
2019-03-26T09:15:09.849Z,34.90
2019-03-26T09:17:44.213Z,36.53
2019-03-26T09:20:15.829Z,33.45
2019-03-26T09:22:47.641Z,36.33
2019-03-26T09:25:19.403Z,34.98
2019-03-26T09:27:52.487Z,38.42
2019-03-26T09:30:24.152Z,35.85
2019-03-26T09:32:56.020Z,37.67
2019-03-26T09:35:27.665Z,33.50
2019-03-26T09:37:59.331Z,37.65
2019-03-26T09:40:31.176Z,41.58
2019-03-26T09:43:02.838Z,41.23
2019-03-26T09:45:34.807Z,37.17
2019-03-26T09:48:06.460Z,39.18
2019-03-26T09:50:38.338Z,39.95
2019-03-26T09:53:10.095Z,39.38
2019-03-26T09:55:41.557Z,39.20
2019-03-26T09:58:13.293Z,40.95
2019-03-26T10:00:45.167Z,62.08
2019-03-26T10:03:16.833Z,64.03
2019-03-26T10:05:48.471Z,67.82
2019-03-26T10:08:20.127Z,61.85
2019-03-26T10:10:52.008Z,58.33
2019-03-26T10:13:23.547Z,75.35
2019-03-26T10:15:55.506Z,88.97
2019-03-26T10:18:27.186Z,74.92
2019-03-26T10:21:00.170Z,73.87
2019-03-26T10:23:31.916Z,85.75
2019-03-26T10:26:04.411Z,85.10
2019-03-26T10:28:35.946Z,84.45
2019-03-26T10:31:07.520Z,90.00
2019-03-26T10:33:39.381Z,68.97
2019-03-26T10:36:10.940Z,73.67
2019-03-26T10:38:42.586Z,67.03
2019-03-26T10:41:14.344Z,67.80
2019-03-26T10:43:46.017Z,41.75
2019-03-26T10:46:17.776Z,43.48
2019-03-26T10:48:49.421Z,42.60
2019-03-26T10:51:20.985Z,40.75
2019-03-26T10:53:52.859Z,38.98
2019-03-26T10:56:24.492Z,41.77
2019-03-26T10:58:56.163Z,39.75
2019-03-26T11:01:27.602Z,38.23
2019-03-26T11:03:59.483Z,44.25
2019-03-26T11:06:31.341Z,42.75
2019-03-26T11:09:04.433Z,39.50
2019-03-26T11:11:36.087Z,38.23
2019-03-26T11:14:07.536Z,35.70
2019-03-26T11:16:39.325Z,37.63
2019-03-26T11:19:10.952Z,36.68
2019-03-26T11:21:42.510Z,34.98
2019-03-26T11:24:15.495Z,34.15
2019-03-26T11:26:47.269Z,33.95
2019-03-26T11:29:18.930Z,31.75
2019-03-26T11:31:50.591Z,32.70
2019-03-26T11:34:22.232Z,32.25
2019-03-26T11:36:54.007Z,35.10
2019-03-26T11:39:32.762Z,29.52
2019-03-26T11:41:58.636Z,34.70
2019-03-26T11:44:30.088Z,28.60
2019-03-26T11:47:02.055Z,29.23
2019-03-26T11:49:33.626Z,30.20
2019-03-26T11:52:05.491Z,31.50
2019-03-26T11:54:37.214Z,31.82
2019-03-26T11:57:08.781Z,29.60
2019-03-26T11:59:40.572Z,27.10
2019-03-26T12:02:12.447Z,28.47
2019-03-26T12:04:44.269Z,28.12
2019-03-26T12:07:15.840Z,31.35
2019-03-26T12:09:47.476Z,25.92
2019-03-26T12:12:19.895Z,30.65
2019-03-26T12:14:57.730Z,29.48
2019-03-26T12:17:31.382Z,28.70
2019-03-26T12:20:03.426Z,31.10
2019-03-26T12:22:34.969Z,29.42
2019-03-26T12:25:07.352Z,31.15
2019-03-26T12:27:39.020Z,30.70
2019-03-26T12:30:10.664Z,29.92
2019-03-26T12:32:42.655Z,27.30
2019-03-26T12:35:17.274Z,28.92
2019-03-26T12:37:48.942Z,32.53
2019-03-26T12:40:20.688Z,28.25
2019-03-26T12:42:52.556Z,40.88
2019-03-26T12:45:24.220Z,33.63
2019-03-26T12:47:55.873Z,30.82
2019-03-26T12:50:27.415Z,28.02
2019-03-26T12:52:58.780Z,29.92
2019-03-26T12:55:30.644Z,27.05
2019-03-26T12:58:01.981Z,28.85
2019-03-26T13:00:33.855Z,25.88
2019-03-26T13:03:05.513Z,28.05
2019-03-26T13:05:36.947Z,33.88
2019-03-26T13:08:08.810Z,40.25
2019-03-26T13:10:52.905Z,38.80
2019-03-26T13:13:13.785Z,37.00
2019-03-26T13:15:45.444Z,35.60
2019-03-26T13:18:17.001Z,29.05
2019-03-26T13:20:49.050Z,32.10
2019-03-26T13:23:20.617Z,28.95
2019-03-26T13:25:52.457Z,23.45
2019-03-26T13:28:24.035Z,24.43
2019-03-26T13:30:55.466Z,24.43
2019-03-26T13:33:27.131Z,28.65
2019-03-26T13:35:58.803Z,27.27
2019-03-26T13:38:30.647Z,25.77
2019-03-26T13:41:02.308Z,26.33
2019-03-26T13:43:34.186Z,28.90
2019-03-26T13:46:05.845Z,22.87
2019-03-26T13:48:37.484Z,23.90
2019-03-26T13:51:09.263Z,24.00
2019-03-26T13:53:40.918Z,21.05
2019-03-26T13:56:12.461Z,24.50
2019-03-26T13:58:44.126Z,20.95
2019-03-26T14:01:15.768Z,24.43
2019-03-26T14:03:47.632Z,22.30
2019-03-26T14:06:19.308Z,24.05
2019-03-26T14:08:51.069Z,24.85
2019-03-26T14:11:22.725Z,27.42
2019-03-26T14:13:54.463Z,26.20
2019-03-26T14:16:26.140Z,33.73
2019-03-26T14:18:58.106Z,37.70
2019-03-26T14:21:29.660Z,36.70
2019-03-26T14:24:01.315Z,29.10
2019-03-26T14:26:33.075Z,31.95
2019-03-26T14:29:04.631Z,30.25
2019-03-26T14:31:36.496Z,29.48
2019-03-26T14:34:08.078Z,26.75
2019-03-26T14:36:40.009Z,27.27
2019-03-26T14:39:11.598Z,27.70
2019-03-26T14:41:43.224Z,24.50
2019-03-26T14:44:14.866Z,26.75
2019-03-26T14:46:46.520Z,30.32
2019-03-26T14:49:18.400Z,24.82
2019-03-26T14:51:50.059Z,558.80
2019-03-26T14:54:21.907Z,456.47
2019-03-26T14:56:53.477Z,59.38
2019-03-26T14:59:25.034Z,37.40
2019-03-26T15:01:57.807Z,32.90
2019-03-26T15:04:29.274Z,52.40
2019-03-26T15:07:01.120Z,40.98
2019-03-26T15:09:32.802Z,37.78
2019-03-26T15:12:04.654Z,30.23
2019-03-26T15:14:36.314Z,32.60
2019-03-26T15:17:08.283Z,39.27
2019-03-26T15:19:40.052Z,33.58
2019-03-26T15:22:11.803Z,41.33
2019-03-26T15:24:44.634Z,39.88
2019-03-26T15:29:49.643Z,32.67
2019-03-26T15:32:21.074Z,30.43
2019-03-26T15:34:52.649Z,33.67
2019-03-26T15:37:24.596Z,35.70
2019-03-26T15:39:56.168Z,33.60
2019-03-26T15:42:27.924Z,35.60
2019-03-26T15:44:59.611Z,33.78
2019-03-26T15:47:31.145Z,31.42
2019-03-26T15:50:02.804Z,24.47
2019-03-26T15:52:34.456Z,25.43
2019-03-26T15:55:06.826Z,32.20
2019-03-26T15:57:39.003Z,32.23
2019-03-26T16:00:11.525Z,32.98
2019-03-26T16:02:46.289Z,29.20
2019-03-26T16:05:18.190Z,67.67
2019-03-26T16:07:49.842Z,79.07
2019-03-26T16:10:22.319Z,80.72
2019-03-26T16:12:54.043Z,64.72
2019-03-26T16:15:25.707Z,53.40
2019-03-26T16:17:57.390Z,44.45
2019-03-26T16:20:30.672Z,45.28
2019-03-26T16:23:02.318Z,46.23
2019-03-26T16:25:34.282Z,43.40
2019-03-26T16:28:07.184Z,45.20
2019-03-26T16:30:38.942Z,41.05
2019-03-26T16:33:10.598Z,41.30
2019-03-26T16:35:42.444Z,39.78
2019-03-26T16:38:14.006Z,38.48
2019-03-26T16:40:45.676Z,46.10
2019-03-26T16:43:17.475Z,44.73
2019-03-26T16:45:49.080Z,44.73
2019-03-26T16:48:20.834Z,45.85
2019-03-26T16:50:52.648Z,51.80
2019-03-26T16:53:30.525Z,52.55
2019-03-26T16:56:02.181Z,56.45
2019-03-26T17:01:14.813Z,59.73
2019-03-26T17:03:46.656Z,54.30
2019-03-26T17:06:18.533Z,49.90
2019-03-26T17:08:50.102Z,60.90
2019-03-26T17:11:21.949Z,48.17
2019-03-26T17:13:53.505Z,57.10
2019-03-26T17:16:25.365Z,57.08
2019-03-26T17:18:57.124Z,57.55
2019-03-26T17:21:28.970Z,60.05
2019-03-26T17:24:01.485Z,48.55
2019-03-26T17:26:33.111Z,47.53
2019-03-26T17:29:05.091Z,48.23
2019-03-26T17:31:43.963Z,52.70
2019-03-26T17:34:15.884Z,58.92
2019-03-26T17:36:47.564Z,55.48
2019-03-26T17:39:19.392Z,65.97
2019-03-26T17:41:51.132Z,52.85
2019-03-26T17:44:22.719Z,60.78
2019-03-26T17:46:54.874Z,54.35
2019-03-26T17:49:26.512Z,66.02
2019-03-26T17:51:58.644Z,70.10
2019-03-26T17:54:30.355Z,54.00
2019-03-26T17:57:14.878Z,73.35
2019-03-26T17:59:48.114Z,65.35
2019-03-26T18:02:19.666Z,59.88
2019-03-26T18:04:51.982Z,57.43
2019-03-26T18:07:23.604Z,63.10
2019-03-26T18:09:55.355Z,78.35
2019-03-26T18:12:31.129Z,98.40
2019-03-26T18:15:00.357Z,93.65
2019-03-26T18:17:31.746Z,97.80
2019-03-26T18:20:03.921Z,98.65
2019-03-26T18:22:36.393Z,94.03
2019-03-26T18:25:08.945Z,82.47
2019-03-26T18:27:41.258Z,80.57
2019-03-26T18:30:12.803Z,61.75
2019-03-26T18:32:44.685Z,62.55
2019-03-26T18:35:16.442Z,60.17
2019-03-26T18:37:48.195Z,57.30
2019-03-26T18:40:20.004Z,59.55
2019-03-26T18:42:51.412Z,60.17
2019-03-26T18:45:22.938Z,63.10
2019-03-26T18:47:54.696Z,64.53
2019-03-26T18:50:26.365Z,65.35
2019-03-26T18:52:57.931Z,60.33
2019-03-26T18:55:29.705Z,64.27
2019-03-26T18:58:01.452Z,69.22
2019-03-26T19:00:38.143Z,58.92
2019-03-26T19:03:09.790Z,64.07
2019-03-26T19:05:41.447Z,54.65
2019-03-26T19:08:14.756Z,60.38
2019-03-26T19:10:46.602Z,54.67
2019-03-26T19:13:20.094Z,54.55
2019-03-26T19:15:51.236Z,59.10
2019-03-26T19:18:23.109Z,54.88
2019-03-26T19:21:02.036Z,55.15
2019-03-26T19:23:27.752Z,60.75
2019-03-26T19:25:59.942Z,48.48
2019-03-26T19:28:31.693Z,50.75
2019-03-26T19:31:05.680Z,47.40
2019-03-26T19:33:37.557Z,47.90
2019-03-26T19:36:09.406Z,43.73
2019-03-26T19:38:40.974Z,45.63
2019-03-26T19:41:13.144Z,46.85
2019-03-26T19:43:44.880Z,43.10
2019-03-26T19:46:16.454Z,39.60
2019-03-26T19:48:48.113Z,46.37
2019-03-26T19:51:19.957Z,49.73
2019-03-26T19:53:51.720Z,45.40
2019-03-26T19:56:23.576Z,44.45
2019-03-26T19:58:55.458Z,40.73
2019-03-26T20:01:27.032Z,44.67
2019-03-26T20:04:19.667Z,49.10
2019-03-26T20:06:52.134Z,45.88
2019-03-26T20:09:24.078Z,44.88
2019-03-26T20:11:55.569Z,45.63
2019-03-26T20:14:27.816Z,46.53
2019-03-26T20:16:59.585Z,50.23
2019-03-26T20:19:31.236Z,47.20
2019-03-26T20:22:02.976Z,44.88
2019-03-26T20:24:46.548Z,53.15
2019-03-26T20:27:18.086Z,51.02
2019-03-26T20:29:49.541Z,54.67
2019-03-26T20:32:21.460Z,58.33
2019-03-26T20:34:53.456Z,57.35
2019-03-26T20:37:27.068Z,52.83
2019-03-26T20:39:58.623Z,53.00
2019-03-26T20:42:30.403Z,61.95
2019-03-26T20:45:02.071Z,61.50
2019-03-26T20:47:33.691Z,62.48
2019-03-26T20:50:08.342Z,62.15
2019-03-26T20:52:39.868Z,60.48
2019-03-26T20:55:12.034Z,57.10
2019-03-26T20:57:45.437Z,54.25
2019-03-26T21:00:20.075Z,51.40
2019-03-26T21:02:51.618Z,47.70
2019-03-26T21:05:23.496Z,43.63
2019-03-26T21:07:56.176Z,47.62
2019-03-26T21:10:27.968Z,49.67
2019-03-26T21:12:59.387Z,48.98
2019-03-26T21:15:31.140Z,47.50
2019-03-26T21:18:03.000Z,51.23
2019-03-26T21:20:34.761Z,56.10
2019-03-26T21:23:06.722Z,73.12
2019-03-26T21:25:38.471Z,78.72
2019-03-26T21:28:09.933Z,82.22
2019-03-26T21:30:41.508Z,69.62
2019-03-26T21:33:13.023Z,60.15
2019-03-26T21:35:44.786Z,57.23
2019-03-26T21:38:16.541Z,63.38
2019-03-26T21:40:48.511Z,57.03
2019-03-26T21:43:21.947Z,58.95
2019-03-26T21:45:53.576Z,64.27
2019-03-26T21:48:25.774Z,59.45
2019-03-26T21:50:57.736Z,61.95
2019-03-26T21:53:29.262Z,69.77
2019-03-26T21:56:06.829Z,83.80
2019-03-26T21:58:34.518Z,88.53
2019-03-26T22:01:05.974Z,94.05
2019-03-26T22:03:37.802Z,102.58
2019-03-26T22:06:09.204Z,113.17
2019-03-26T22:08:41.573Z,105.92
2019-03-26T22:11:13.151Z,113.08
2019-03-26T22:13:44.472Z,105.37
2019-03-26T22:16:15.954Z,118.82
2019-03-26T22:18:47.786Z,121.57
2019-03-26T22:21:19.667Z,117.57
2019-03-26T22:23:51.180Z,113.60
2019-03-26T22:26:22.729Z,123.87
2019-03-26T22:28:54.299Z,111.68
2019-03-26T22:31:25.859Z,120.42
2019-03-26T22:33:57.612Z,115.55
2019-03-26T22:36:29.258Z,114.28
2019-03-26T22:39:01.035Z,105.27
2019-03-26T22:41:34.237Z,102.25
2019-03-26T22:44:05.677Z,98.35
2019-03-26T22:46:37.528Z,98.97
2019-03-26T22:49:09.208Z,100.00
2019-03-26T22:51:40.759Z,101.20
2019-03-26T22:54:12.615Z,104.15
2019-03-26T22:56:44.383Z,94.17
2019-03-26T22:59:16.017Z,100.65
2019-03-26T23:01:47.878Z,102.82
2019-03-26T23:04:20.095Z,98.65
2019-03-26T23:06:51.612Z,92.88
2019-03-26T23:09:23.601Z,103.87
2019-03-26T23:11:55.037Z,93.87
2019-03-26T23:14:27.924Z,91.37
2019-03-26T23:16:59.485Z,94.90
2019-03-26T23:19:31.240Z,98.75
2019-03-26T23:22:02.790Z,105.65
2019-03-26T23:24:34.546Z,104.25
2019-03-26T23:27:06.206Z,108.87
2019-03-26T23:29:39.254Z,107.67
2019-03-26T23:32:11.537Z,121.43
2019-03-26T23:34:43.305Z,118.77
2019-03-26T23:37:15.295Z,116.10
2019-03-26T23:39:47.132Z,124.97
2019-03-26T23:42:18.711Z,126.33
2019-03-26T23:44:58.195Z,118.37
2019-03-26T23:47:23.693Z,129.73
2019-03-26T23:49:55.313Z,122.23
2019-03-26T23:52:27.073Z,124.13
2019-03-26T23:54:58.612Z,115.33
2019-03-26T23:57:30.981Z,119.60
